createdAt,value
2022-11-29T00:01:21.687Z,41.60
2022-11-29T00:03:49.928Z,39.50
2022-11-29T00:06:19.958Z,40.30
2022-11-29T00:08:48.297Z,39.90
2022-11-29T00:11:38.546Z,41.20
2022-11-29T00:14:07.711Z,38.60
2022-11-29T00:16:35.666Z,39.90
2022-11-29T00:19:03.430Z,40.60
2022-11-29T00:21:31.040Z,40.10
2022-11-29T00:23:58.660Z,40.80
2022-11-29T00:26:26.367Z,40.80
2022-11-29T00:28:54.649Z,41.80
2022-11-29T00:31:27.324Z,38.50
2022-11-29T00:33:56.621Z,39.60
2022-11-29T00:36:24.915Z,38.40
2022-11-29T00:38:52.832Z,39.70
2022-11-29T00:41:20.456Z,39.30
2022-11-29T00:43:48.199Z,39.20
2022-11-29T00:46:16.115Z,37.80
2022-11-29T00:48:43.885Z,38.10
2022-11-29T00:51:11.945Z,40.60
2022-11-29T00:53:39.636Z,38.50
2022-11-29T00:56:07.648Z,40.20
2022-11-29T00:58:36.585Z,38.30
2022-11-29T01:01:05.086Z,38.80
2022-11-29T01:03:33.003Z,39.10
2022-11-29T01:06:06.223Z,38.60
2022-11-29T01:08:33.854Z,35.90
2022-11-29T01:11:11.446Z,40.50
2022-11-29T01:13:39.736Z,38.90
2022-11-29T01:16:08.187Z,38.30
2022-11-29T01:18:36.624Z,38.10
2022-11-29T01:21:12.076Z,39.10
2022-11-29T01:23:40.742Z,38.40
2022-11-29T01:26:10.869Z,39.90
2022-11-29T01:28:39.707Z,40.90
2022-11-29T01:31:13.221Z,40.70
2022-11-29T01:33:41.726Z,38.80
2022-11-29T01:36:10.122Z,38.80
2022-11-29T01:38:37.827Z,40.80
2022-11-29T01:41:12.712Z,40.60
2022-11-29T01:43:59.279Z,40.30
2022-11-29T01:46:29.497Z,40.10
2022-11-29T01:49:01.934Z,41.70
2022-11-29T01:51:30.528Z,41.30
2022-11-29T01:53:58.543Z,40.70
2022-11-29T01:56:28.071Z,41.70
2022-11-29T01:58:56.306Z,38.50
2022-11-29T02:01:24.223Z,39.00
2022-11-29T02:03:53.247Z,38.50
2022-11-29T02:06:21.183Z,41.70
2022-11-29T02:08:48.771Z,39.50
2022-11-29T02:11:42.789Z,38.20
2022-11-29T02:14:29.288Z,42.10
2022-11-29T02:17:07.329Z,40.10
2022-11-29T02:20:07.533Z,37.50
2022-11-29T02:22:53.187Z,41.00
2022-11-29T02:25:51.787Z,41.00
2022-11-29T02:28:46.168Z,39.10
2022-11-29T02:31:13.799Z,37.90
2022-11-29T02:33:58.531Z,38.90
2022-11-29T02:36:38.852Z,39.40
2022-11-29T02:39:34.791Z,38.20
2022-11-29T02:42:54.128Z,40.00
2022-11-29T02:45:36.502Z,35.60
2022-11-29T02:48:09.910Z,37.00
2022-11-29T02:50:54.682Z,41.40
2022-11-29T02:53:37.513Z,36.90
2022-11-29T02:56:18.335Z,35.60
2022-11-29T02:59:36.561Z,39.30
2022-11-29T03:02:21.574Z,39.60
2022-11-29T03:05:09.962Z,40.70
2022-11-29T03:07:55.929Z,39.30
2022-11-29T03:10:39.405Z,40.90
2022-11-29T03:13:29.509Z,37.30
2022-11-29T03:16:29.692Z,38.60
2022-11-29T03:19:05.584Z,39.40
2022-11-29T03:21:41.921Z,39.60
2022-11-29T03:24:16.172Z,42.20
2022-11-29T03:26:49.937Z,39.50
2022-11-29T03:29:33.113Z,42.70
2022-11-29T03:32:09.698Z,38.80
2022-11-29T03:35:00.011Z,41.30
2022-11-29T03:37:58.325Z,38.50
2022-11-29T03:40:55.153Z,37.50
2022-11-29T03:43:46.069Z,37.80
2022-11-29T03:46:23.712Z,39.00
2022-11-29T03:48:59.482Z,38.90
2022-11-29T03:51:55.253Z,39.70
2022-11-29T03:54:28.132Z,41.70
2022-11-29T03:56:56.013Z,44.00
2022-11-29T03:59:47.224Z,43.10
2022-11-29T04:03:00.931Z,42.80
2022-11-29T04:05:54.724Z,42.30
2022-11-29T04:08:45.441Z,42.50
2022-11-29T04:11:31.702Z,43.40
2022-11-29T04:14:30.170Z,46.50
2022-11-29T04:17:24.527Z,44.80
2022-11-29T04:20:20.456Z,43.10
2022-11-29T04:23:25.609Z,46.50
2022-11-29T04:26:27.771Z,49.40
2022-11-29T04:29:11.596Z,44.40
2022-11-29T04:31:59.655Z,47.50
2022-11-29T04:34:52.318Z,51.40
2022-11-29T04:37:58.813Z,49.30
2022-11-29T04:40:49.079Z,48.50
2022-11-29T04:43:44.848Z,48.30
2022-11-29T04:46:31.259Z,51.00
2022-11-29T04:49:07.136Z,52.40
2022-11-29T04:51:57.022Z,48.70
2022-11-29T04:54:46.769Z,45.80
2022-11-29T04:57:38.705Z,47.70
2022-11-29T05:00:12.447Z,50.70
2022-11-29T05:02:56.539Z,54.40
2022-11-29T05:05:39.523Z,50.00
2022-11-29T05:08:45.806Z,46.90
2022-11-29T05:11:27.089Z,48.90
2022-11-29T05:14:32.036Z,48.10
2022-11-29T05:17:19.149Z,44.10
2022-11-29T05:19:58.814Z,44.00
2022-11-29T05:22:40.060Z,49.60
2022-11-29T05:25:37.579Z,45.00
2022-11-29T05:28:20.834Z,43.40
2022-11-29T05:31:07.375Z,47.90
2022-11-29T05:34:13.157Z,47.00
2022-11-29T05:36:46.715Z,48.20
2022-11-29T05:39:39.572Z,48.20
2022-11-29T05:42:32.089Z,49.90
2022-11-29T05:45:07.647Z,49.30
2022-11-29T05:47:41.449Z,43.90
2022-11-29T05:50:23.285Z,44.00
2022-11-29T05:53:02.581Z,46.20
2022-11-29T05:56:07.014Z,46.10
2022-11-29T05:58:43.563Z,45.20
2022-11-29T06:01:19.296Z,44.80
2022-11-29T06:04:10.320Z,47.80
2022-11-29T06:06:49.520Z,48.70
2022-11-29T06:09:23.841Z,46.20
2022-11-29T06:12:05.473Z,45.10
2022-11-29T06:14:55.354Z,49.40
2022-11-29T06:17:48.909Z,48.90
2022-11-29T06:20:29.659Z,46.00
2022-11-29T06:23:01.729Z,47.80
2022-11-29T06:26:08.671Z,49.80
2022-11-29T06:29:19.141Z,47.90
2022-11-29T06:31:51.409Z,47.90
2022-11-29T06:34:44.695Z,49.70
2022-11-29T06:37:32.571Z,44.80
2022-11-29T06:40:00.524Z,50.20
2022-11-29T06:42:28.138Z,47.70
2022-11-29T06:44:56.051Z,49.00
2022-11-29T06:47:44.553Z,39.50
2022-11-29T06:50:37.259Z,44.60
2022-11-29T06:53:19.606Z,50.90
2022-11-29T06:56:03.134Z,48.30
2022-11-29T06:58:43.007Z,48.60
2022-11-29T07:01:28.954Z,54.20
2022-11-29T07:03:59.211Z,53.30
2022-11-29T07:06:29.047Z,47.60
2022-11-29T07:09:00.683Z,52.10
2022-11-29T07:11:28.848Z,52.60
2022-11-29T07:13:56.706Z,55.00
2022-11-29T07:16:28.954Z,44.60
2022-11-29T07:19:12.532Z,46.40
2022-11-29T07:21:49.340Z,49.00
2022-11-29T07:24:41.980Z,46.40
2022-11-29T07:27:20.304Z,50.80
2022-11-29T07:30:14.135Z,49.90
2022-11-29T07:33:00.914Z,54.00
2022-11-29T07:35:51.190Z,51.40
2022-11-29T07:38:40.933Z,53.70
2022-11-29T07:41:19.230Z,52.30
2022-11-29T07:44:26.459Z,58.20
2022-11-29T07:46:54.251Z,58.80
2022-11-29T07:49:21.890Z,59.10
2022-11-29T07:51:49.568Z,60.90
2022-11-29T07:54:18.914Z,58.60
2022-11-29T07:56:46.793Z,59.00
2022-11-29T07:59:14.734Z,54.20
2022-11-29T08:01:42.629Z,51.80
2022-11-29T08:04:10.318Z,55.20
2022-11-29T08:06:38.109Z,48.40
2022-11-29T08:09:07.476Z,52.80
2022-11-29T08:11:35.123Z,51.40
2022-11-29T08:14:03.977Z,56.80
2022-11-29T08:16:32.014Z,66.40
2022-11-29T08:19:00.117Z,60.00
2022-11-29T08:21:28.198Z,53.90
2022-11-29T08:23:55.797Z,54.00
2022-11-29T08:26:26.879Z,52.50
2022-11-29T08:28:58.742Z,53.10
2022-11-29T08:31:26.418Z,54.50
2022-11-29T08:33:54.086Z,54.90
2022-11-29T08:36:21.773Z,55.50
2022-11-29T08:38:50.375Z,52.80
2022-11-29T08:41:19.507Z,55.50
2022-11-29T08:43:47.189Z,51.80
2022-11-29T08:46:18.616Z,56.90
2022-11-29T08:48:49.608Z,54.50
2022-11-29T08:51:17.240Z,51.50
2022-11-29T08:53:46.413Z,52.20
2022-11-29T08:57:04.275Z,51.80
2022-11-29T08:59:05.190Z,55.50
2022-11-29T09:01:32.954Z,59.10
2022-11-29T09:04:02.771Z,58.90
2022-11-29T09:06:33.364Z,53.90
2022-11-29T09:09:01.153Z,52.20
2022-11-29T09:11:30.054Z,55.80
2022-11-29T09:14:00.363Z,55.90
2022-11-29T09:16:30.370Z,54.60
2022-11-29T09:18:58.065Z,54.80
2022-11-29T09:21:27.553Z,55.50
2022-11-29T09:23:59.158Z,54.70
2022-11-29T09:26:31.719Z,49.00
2022-11-29T09:29:01.337Z,50.70
2022-11-29T09:31:30.684Z,44.10
2022-11-29T09:33:58.685Z,42.80
2022-11-29T09:36:29.186Z,41.30
2022-11-29T09:38:58.260Z,41.00
2022-11-29T09:41:32.058Z,42.70
2022-11-29T09:44:11.772Z,39.50
2022-11-29T09:46:57.179Z,37.90
2022-11-29T09:49:29.378Z,37.90
2022-11-29T09:52:27.076Z,37.70
2022-11-29T09:55:07.239Z,41.10
2022-11-29T09:57:34.986Z,39.50
2022-11-29T10:00:06.984Z,41.20
2022-11-29T10:02:43.896Z,38.20
2022-11-29T10:05:25.761Z,40.50
2022-11-29T10:08:24.774Z,42.00
2022-11-29T10:10:57.585Z,41.50
2022-11-29T10:13:29.731Z,44.30
2022-11-29T10:16:06.557Z,41.30
2022-11-29T10:18:48.696Z,41.10
2022-11-29T10:21:19.779Z,40.80
2022-11-29T10:23:50.873Z,41.70
2022-11-29T10:26:20.727Z,42.50
2022-11-29T10:28:49.416Z,39.70
2022-11-29T10:31:28.888Z,38.30
2022-11-29T10:33:59.351Z,38.80
2022-11-29T10:36:33.909Z,41.90
2022-11-29T10:39:08.827Z,37.40
2022-11-29T10:41:40.723Z,39.30
2022-11-29T10:44:12.324Z,38.40
2022-11-29T10:46:40.123Z,39.70
2022-11-29T10:49:14.563Z,35.10
2022-11-29T10:51:42.619Z,34.30
2022-11-29T10:54:21.825Z,33.40
2022-11-29T10:56:49.790Z,34.90
2022-11-29T10:59:23.239Z,42.40
2022-11-29T11:01:51.756Z,40.30
2022-11-29T11:04:25.475Z,37.00
2022-11-29T11:07:00.959Z,37.80
2022-11-29T11:09:28.683Z,33.70
2022-11-29T11:12:01.164Z,34.60
2022-11-29T11:14:32.450Z,38.70
2022-11-29T11:17:27.041Z,34.30
2022-11-29T11:20:06.338Z,33.50
2022-11-29T11:22:36.040Z,35.30
2022-11-29T11:25:25.619Z,36.50
2022-11-29T11:27:53.728Z,38.30
2022-11-29T11:30:23.811Z,38.80
2022-11-29T11:33:29.083Z,38.80
2022-11-29T11:36:08.815Z,38.70
2022-11-29T11:38:42.107Z,42.00
2022-11-29T11:41:51.243Z,40.10
2022-11-29T11:44:46.453Z,41.20
2022-11-29T11:47:18.380Z,41.20
2022-11-29T11:50:00.290Z,39.00
2022-11-29T11:52:37.091Z,38.80
2022-11-29T11:55:50.851Z,41.00
2022-11-29T11:58:22.424Z,40.60
2022-11-29T12:01:04.066Z,41.70
2022-11-29T12:03:49.304Z,48.00
2022-11-29T12:06:32.114Z,41.70
2022-11-29T12:09:40.977Z,43.00
2022-11-29T12:12:16.012Z,43.70
2022-11-29T12:15:02.763Z,41.60
2022-11-29T12:17:37.832Z,41.60
2022-11-29T12:20:28.332Z,39.00
2022-11-29T12:23:11.233Z,40.40
2022-11-29T12:25:52.348Z,39.10
2022-11-29T12:28:21.573Z,36.00
2022-11-29T12:31:17.093Z,37.50
2022-11-29T12:33:58.070Z,41.30
2022-11-29T12:36:37.331Z,42.10
2022-11-29T12:39:25.368Z,41.00
2022-11-29T12:42:01.682Z,42.00
2022-11-29T12:44:39.210Z,41.20
2022-11-29T12:50:16.538Z,40.10
2022-11-29T12:53:00.140Z,38.80
2022-11-29T12:55:49.171Z,41.40
2022-11-29T12:58:27.238Z,43.40
2022-11-29T13:01:04.208Z,43.30
2022-11-29T13:04:06.211Z,44.00
2022-11-29T13:06:50.073Z,41.60
2022-11-29T13:09:42.622Z,42.80
2022-11-29T13:12:29.402Z,41.70
2022-11-29T13:15:12.180Z,41.30
2022-11-29T13:18:00.098Z,41.10
2022-11-29T13:20:40.985Z,41.00
2022-11-29T13:23:20.899Z,39.50
2022-11-29T13:25:51.874Z,40.90
2022-11-29T13:28:28.612Z,41.20
2022-11-29T13:31:06.770Z,42.00
2022-11-29T13:33:37.516Z,43.30
2022-11-29T13:36:26.983Z,44.30
2022-11-29T13:39:02.160Z,43.50
2022-11-29T13:41:50.994Z,40.70
2022-11-29T13:44:31.024Z,41.00
2022-11-29T13:47:14.996Z,50.00
2022-11-29T13:50:28.981Z,40.50
2022-11-29T13:53:04.139Z,44.40
2022-11-29T13:55:33.066Z,44.70
2022-11-29T13:58:22.516Z,42.40
2022-11-29T14:00:51.219Z,38.80
2022-11-29T14:03:19.265Z,42.00
2022-11-29T14:05:48.192Z,41.90
2022-11-29T14:08:37.912Z,41.10
2022-11-29T14:11:21.740Z,44.00
2022-11-29T14:14:24.460Z,42.80
2022-11-29T14:17:01.243Z,39.50
2022-11-29T14:19:34.346Z,41.20
2022-11-29T14:22:02.173Z,45.60
2022-11-29T14:24:35.416Z,43.20
2022-11-29T14:27:06.265Z,43.80
2022-11-29T14:29:55.173Z,51.70
2022-11-29T14:32:57.872Z,43.50
2022-11-29T14:36:02.890Z,43.10
2022-11-29T14:38:38.715Z,49.70
2022-11-29T14:41:31.113Z,46.60
2022-11-29T14:44:11.256Z,45.70
2022-11-29T14:46:38.977Z,43.00
2022-11-29T14:49:06.645Z,46.40
2022-11-29T14:51:34.443Z,47.20
2022-11-29T14:54:13.235Z,47.30
2022-11-29T14:56:42.821Z,48.00
2022-11-29T14:59:42.759Z,46.20
2022-11-29T15:02:32.522Z,46.30
2022-11-29T15:05:19.142Z,47.10
2022-11-29T15:08:25.388Z,49.30
2022-11-29T15:11:01.467Z,49.90
2022-11-29T15:13:31.965Z,48.20
2022-11-29T15:16:18.324Z,50.00
2022-11-29T15:19:04.968Z,51.30
2022-11-29T15:21:41.779Z,51.80
2022-11-29T15:24:14.253Z,52.10
2022-11-29T15:27:14.433Z,50.00
2022-11-29T15:29:42.030Z,48.30
2022-11-29T15:32:20.931Z,51.20
2022-11-29T15:34:50.470Z,49.80
2022-11-29T15:37:42.740Z,49.20
2022-11-29T15:40:17.735Z,45.30
2022-11-29T15:42:53.448Z,48.60
2022-11-29T15:45:32.919Z,48.70
2022-11-29T15:48:11.991Z,49.10
2022-11-29T15:50:44.707Z,46.10
2022-11-29T15:53:17.573Z,47.00
2022-11-29T15:55:49.378Z,48.70
2022-11-29T15:58:17.612Z,45.10
2022-11-29T16:00:49.649Z,46.10
2022-11-29T16:03:21.400Z,46.60
2022-11-29T16:05:52.699Z,46.10
2022-11-29T16:08:20.988Z,45.50
2022-11-29T16:10:53.021Z,48.50
2022-11-29T16:13:37.124Z,47.70
2022-11-29T16:16:09.911Z,45.90
2022-11-29T16:18:40.947Z,47.00
2022-11-29T16:21:29.302Z,46.90
2022-11-29T16:23:57.821Z,45.80
2022-11-29T16:26:33.819Z,44.40
2022-11-29T16:29:01.734Z,45.60
2022-11-29T16:31:34.926Z,46.10
2022-11-29T16:34:31.312Z,46.30
2022-11-29T16:37:19.537Z,46.30
2022-11-29T16:39:50.389Z,46.70
2022-11-29T16:42:25.886Z,44.70
2022-11-29T16:45:02.401Z,46.90
2022-11-29T16:47:48.057Z,46.30
2022-11-29T16:50:18.997Z,45.10
2022-11-29T16:52:49.761Z,44.40
2022-11-29T16:55:20.105Z,44.10
2022-11-29T16:57:48.157Z,43.50
2022-11-29T17:00:33.381Z,43.70
2022-11-29T17:03:01.010Z,43.90
2022-11-29T17:05:29.190Z,44.80
2022-11-29T17:07:56.841Z,44.00
2022-11-29T17:10:25.718Z,46.40
2022-11-29T17:12:53.436Z,44.40
2022-11-29T17:15:21.095Z,41.10
2022-11-29T17:17:49.111Z,42.00
2022-11-29T17:20:16.958Z,43.20
2022-11-29T17:22:44.786Z,44.40
2022-11-29T17:25:12.518Z,40.20
2022-11-29T17:27:40.480Z,37.30
2022-11-29T17:30:08.948Z,37.10
2022-11-29T17:32:37.088Z,36.00
2022-11-29T17:35:05.084Z,35.50
2022-11-29T17:37:32.796Z,36.00
2022-11-29T17:40:00.420Z,37.70
2022-11-29T17:42:28.037Z,35.40
2022-11-29T17:44:55.672Z,35.20
2022-11-29T17:47:23.289Z,35.70
2022-11-29T17:49:50.913Z,37.00
2022-11-29T17:52:18.581Z,37.80
2022-11-29T17:54:46.467Z,39.30
2022-11-29T17:57:14.765Z,38.90
2022-11-29T17:59:42.364Z,38.60
2022-11-29T18:02:13.001Z,37.80
2022-11-29T18:04:42.579Z,39.60
2022-11-29T18:07:10.226Z,39.50
2022-11-29T18:09:37.805Z,40.90
2022-11-29T18:12:05.799Z,43.60
2022-11-29T18:14:34.235Z,42.10
2022-11-29T18:17:01.911Z,42.00
2022-11-29T18:19:31.319Z,44.30
2022-11-29T18:21:59.130Z,44.60
2022-11-29T18:24:26.751Z,42.40
2022-11-29T18:26:54.379Z,43.60
2022-11-29T18:29:23.535Z,46.20
2022-11-29T18:31:51.326Z,44.70
2022-11-29T18:34:18.921Z,44.80
2022-11-29T18:36:48.321Z,48.50
2022-11-29T18:39:20.167Z,47.50
2022-11-29T18:41:49.414Z,48.20
2022-11-29T18:44:19.482Z,47.40
2022-11-29T18:46:47.603Z,45.80
2022-11-29T18:49:16.608Z,45.10
2022-11-29T18:51:45.629Z,46.60
2022-11-29T18:54:15.640Z,47.70
2022-11-29T18:56:44.197Z,47.70
2022-11-29T18:59:17.629Z,48.70
2022-11-29T19:01:48.061Z,51.50
2022-11-29T19:04:20.328Z,51.70
2022-11-29T19:06:48.886Z,50.90
2022-11-29T19:09:20.859Z,47.20
2022-11-29T19:11:49.697Z,47.70
2022-11-29T19:14:18.061Z,46.00
2022-11-29T19:16:47.317Z,50.10
2022-11-29T19:19:14.950Z,46.80
2022-11-29T19:21:42.603Z,50.40
2022-11-29T19:24:14.561Z,45.50
2022-11-29T19:26:44.849Z,47.20
2022-11-29T19:29:13.781Z,43.30
2022-11-29T19:31:42.426Z,43.50
2022-11-29T19:34:10.873Z,46.80
2022-11-29T19:36:43.367Z,48.00
2022-11-29T19:39:16.568Z,47.20
2022-11-29T19:41:46.571Z,47.80
2022-11-29T19:44:14.507Z,48.20
2022-11-29T19:46:45.816Z,48.60
2022-11-29T19:49:13.550Z,48.10
2022-11-29T19:51:41.343Z,48.90
2022-11-29T19:54:10.195Z,47.90
2022-11-29T19:56:38.889Z,50.70
2022-11-29T19:59:07.779Z,50.50
2022-11-29T20:01:43.801Z,51.70
2022-11-29T20:04:13.168Z,53.80
2022-11-29T20:06:41.773Z,53.30
2022-11-29T20:09:10.454Z,53.30
2022-11-29T20:11:38.598Z,53.70
2022-11-29T20:14:07.356Z,52.60
2022-11-29T20:16:37.989Z,53.20
2022-11-29T20:19:14.130Z,54.50
2022-11-29T20:21:45.141Z,52.50
2022-11-29T20:24:14.271Z,51.40
2022-11-29T20:26:45.040Z,49.10
2022-11-29T20:29:13.729Z,46.50
2022-11-29T20:31:50.099Z,49.40
2022-11-29T20:34:19.582Z,50.20
2022-11-29T20:36:59.352Z,49.60
2022-11-29T20:39:49.260Z,51.30
2022-11-29T20:42:31.336Z,52.30
2022-11-29T20:45:01.329Z,49.00
2022-11-29T20:47:51.214Z,46.30
2022-11-29T20:50:23.774Z,49.20
2022-11-29T20:52:59.453Z,49.90
2022-11-29T20:55:27.145Z,48.30
2022-11-29T20:57:56.116Z,49.00
2022-11-29T21:00:23.991Z,51.40
2022-11-29T21:02:51.720Z,50.00
2022-11-29T21:05:19.947Z,51.20
2022-11-29T21:07:47.624Z,51.50
2022-11-29T21:10:15.572Z,50.00
2022-11-29T21:12:45.730Z,50.50
2022-11-29T21:15:14.564Z,51.00
2022-11-29T21:17:43.043Z,50.90
2022-11-29T21:20:23.899Z,52.90
2022-11-29T21:23:12.625Z,50.50
2022-11-29T21:26:17.826Z,52.60
2022-11-29T21:28:59.954Z,48.60
2022-11-29T21:31:27.876Z,47.40
2022-11-29T21:33:55.779Z,47.70
2022-11-29T21:36:23.431Z,48.40
2022-11-29T21:38:55.034Z,48.10
2022-11-29T21:41:23.256Z,52.60
2022-11-29T21:44:06.041Z,48.70
2022-11-29T21:46:35.942Z,53.30
2022-11-29T21:49:04.422Z,54.50
2022-11-29T21:51:32.090Z,54.20
2022-11-29T21:54:01.218Z,51.80
2022-11-29T21:56:28.864Z,49.20
2022-11-29T21:58:56.549Z,49.20
2022-11-29T22:01:24.594Z,46.60
2022-11-29T22:03:53.759Z,48.80
2022-11-29T22:06:24.084Z,51.50
2022-11-29T22:08:52.052Z,51.00
2022-11-29T22:11:36.624Z,51.60
2022-11-29T22:14:13.425Z,47.80
2022-11-29T22:16:47.313Z,50.50
2022-11-29T22:19:19.581Z,51.30
2022-11-29T22:21:49.932Z,52.30
2022-11-29T22:24:19.750Z,51.10
2022-11-29T22:26:48.733Z,50.90
2022-11-29T22:29:17.881Z,52.30
2022-11-29T22:31:47.118Z,55.00
2022-11-29T22:34:14.996Z,55.20
2022-11-29T22:36:42.796Z,55.20
2022-11-29T22:39:10.599Z,56.20
2022-11-29T22:41:39.437Z,54.10
2022-11-29T22:44:07.451Z,52.90
2022-11-29T22:46:40.086Z,55.10
2022-11-29T22:49:08.007Z,54.80
2022-11-29T22:51:37.408Z,56.70
2022-11-29T22:54:07.353Z,57.80
2022-11-29T22:56:37.606Z,58.30
2022-11-29T22:59:05.460Z,59.50
2022-11-29T23:01:35.006Z,55.60
2022-11-29T23:04:05.255Z,57.00
2022-11-29T23:06:35.775Z,60.40
2022-11-29T23:09:15.727Z,60.90
2022-11-29T23:11:44.626Z,59.30
2022-11-29T23:14:12.745Z,54.40
2022-11-29T23:16:40.421Z,51.00
2022-11-29T23:19:08.051Z,49.80
2022-11-29T23:21:38.322Z,50.50
2022-11-29T23:24:06.460Z,48.20
2022-11-29T23:26:40.032Z,51.00
2022-11-29T23:29:10.656Z,50.90
2022-11-29T23:31:39.007Z,54.60
2022-11-29T23:34:07.141Z,50.80
2022-11-29T23:36:34.937Z,53.50
2022-11-29T23:39:06.625Z,55.20
2022-11-29T23:41:35.928Z,56.00
2022-11-29T23:44:05.265Z,58.20
2022-11-29T23:46:33.061Z,57.10
2022-11-29T23:49:00.755Z,58.40
2022-11-29T23:51:28.380Z,58.10
2022-11-29T23:53:55.979Z,59.00
2022-11-29T23:56:23.578Z,56.90
2022-11-29T23:58:51.177Z,55.60
